Oosterschelde — PGNP — position and weather

sailwx.info

Track history (hours):
 
Tides and Currents Weather Stations Pressure Air Temp Water Temp Dewpoint Dewpoint Depression Visibility Wind Speed Wind Dir Waves Ship Positions

Oosterschelde (Netherlands)

Ship's website: http://www.oosterschelde.nl/indexuk.htm

Last reported at 2017-Dec-16 01:31 UTC. Time now 2017-Dec-16 01:52 UTC.
Position N 50°36' E 000°01'.

Length 49 m; draft 2.9 m.

Type: Sailing vessel. MMSI: 246010985.

Date/timePositionNaut miles runAvg speedWind from/ knotsBaromVisibWave heightAir tempDewpointWater temp
2017-Dec-16 01:31N 50°36' E 000°01'3 6.3
2017-Dec-16 01:00N 50°37' E 000°06'3 5.6
2017-Dec-16 00:30N 50°38' E 000°10'3 5.0
2017-Dec-16 00:00N 50°39' E 000°14'2 3.8
2017-Dec-15 23:30N 50°40' E 000°16'2 3.9
2017-Dec-15 23:00N 50°41' E 000°19'2 3.9
2017-Dec-15 22:30N 50°42' E 000°22'2 3.9
2017-Dec-15 22:00N 50°43' E 000°25'2 4.8
2017-Dec-15 21:30N 50°44' E 000°28'2 4.2
2017-Dec-15 21:00N 50°45' E 000°31'2 3.5
2017-Dec-15 20:31N 50°46' E 000°33'2 3.5
2017-Dec-15 20:00N 50°46' E 000°36'2 3.2
2017-Dec-15 19:30N 50°47' E 000°38'2 4.2
2017-Dec-15 19:00N 50°48' E 000°41'28 6.6
2017-Dec-15 14:45N 51°00' E 001°21'2 7.5
2017-Dec-15 14:30N 51°01' E 001°24'4 7.4
2017-Dec-15 14:00N 51°02' E 001°29'3 6.5
2017-Dec-15 13:30N 51°03' E 001°34'3 5.8
2017-Dec-15 13:00N 51°04' E 001°38'3 5.3
2017-Dec-15 12:28N 51°04' E 001°43'9 4.0
2017-Dec-15 10:13N 51°06' E 001°57'1 3.8
2017-Dec-15 09:54N 51°06' E 001°59'2 3.7
2017-Dec-15 09:29N 51°06' E 002°01'2 4.1
2017-Dec-15 09:00N 51°07' E 002°04'2 4.1
2017-Dec-15 08:30N 51°07' E 002°07'2 4.1
2017-Dec-15 07:59N 51°08' E 002°11'2 4.6
2017-Dec-15 07:28N 51°09' E 002°14'3 5.6
2017-Dec-15 06:59N 51°10' E 002°18'3 6.3
2017-Dec-15 06:30N 51°11' E 002°23'3 5.8
2017-Dec-15 06:00N 51°11' E 002°27'3 6.7
2017-Dec-15 05:30N 51°13' E 002°32'4 6.9
2017-Dec-15 05:00N 51°15' E 002°36'3 7.1
2017-Dec-15 04:30N 51°17' E 002°41'3 6.5
2017-Dec-15 03:59N 51°18' E 002°46'8 5.0
2017-Dec-15 02:27N 51°21' E 002°58'7 4.7
2017-Dec-15 01:00N 51°22' E 003°08'3 5.6
2017-Dec-15 00:30N 51°23' E 003°13'25 4.2
2017-Dec-14 18:31N 51°21' E 003°53'3 6.0
2017-Dec-14 18:00N 51°23' E 003°57'3 6.3
2017-Dec-14 17:30N 51°26' E 003°59'2 1.9
2017-Dec-14 16:42N 51°27' E 004°01'1 3.5
2017-Dec-14 16:29N 51°28' E 004°00'1 2.5
2017-Dec-14 16:00N 51°29' E 004°00'26 1.0
2017-Dec-13 13:46N 51°43' E 004°36'4 6.4
2017-Dec-13 13:10N 51°46' E 004°38'1 8.2
2017-Dec-13 13:00N 51°48' E 004°37'4 7.2
2017-Dec-13 12:30N 51°50' E 004°33'4 7.9
2017-Dec-13 12:00N 51°50' E 004°26'4 7.9
2017-Dec-13 11:30N 51°51' E 004°20'3 5.2
2017-Dec-13 11:00N 51°54' E 004°21'3 5.7
2017-Dec-13 10:30N 51°54' E 004°26'2 4.4
2017-Dec-13 10:00N 51°55' E 004°29'0 0.8
2017-Dec-13 09:30N 51°55' E 004°29'0 0.0
2017-Dec-13 09:00N 51°55' E 004°29'0 0.0
2017-Dec-13 08:30N 51°55' E 004°29'0 0.0
2017-Dec-13 08:00N 51°55' E 004°29'0 0.0
2017-Dec-13 07:27N 51°55' E 004°29'0 0.0
2017-Dec-13 07:00N 51°55' E 004°29'0 0.0
2017-Dec-13 06:27N 51°55' E 004°29'0 0.0
2017-Dec-13 06:00N 51°55' E 004°29'0 0.0
2017-Dec-13 05:30N 51°55' E 004°29'0 0.0
2017-Dec-13 05:00N 51°55' E 004°29'0 0.0
2017-Dec-13 04:30N 51°55' E 004°29'0 0.0
2017-Dec-13 04:00N 51°55' E 004°29'0 0.0
2017-Dec-13 03:30N 51°55' E 004°29'0 0.0
2017-Dec-13 03:00N 51°55' E 004°29'0 0.0
2017-Dec-13 02:30N 51°55' E 004°29'0 0.0
2017-Dec-13 02:00N 51°55' E 004°29'0 0.0
2017-Dec-13 01:30N 51°55' E 004°29'0 0.0
2017-Dec-13 01:00N 51°55' E 004°29'0 0.0
2017-Dec-13 00:30N 51°55' E 004°29'0 0.0
2017-Dec-13 00:00N 51°55' E 004°29'0 0.1
2017-Dec-12 23:30N 51°55' E 004°29'0 0.1
2017-Dec-12 23:00N 51°55' E 004°29'0 0.0
2017-Dec-12 22:30N 51°55' E 004°29'0 0.0
2017-Dec-12 22:00N 51°55' E 004°29'0 0.0
2017-Dec-12 21:30N 51°55' E 004°29'0 0.0
2017-Dec-12 21:00N 51°55' E 004°29'0 0.0
2017-Dec-12 20:30N 51°55' E 004°29'0 0.0
2017-Dec-12 20:00N 51°55' E 004°29'0 0.0
2017-Dec-12 19:30N 51°55' E 004°29'0 0.0
2017-Dec-12 19:00N 51°55' E 004°29'0 0.0
2017-Dec-12 18:30N 51°55' E 004°29'0 0.0
2017-Dec-12 18:00N 51°55' E 004°29'0 0.1
2017-Dec-12 17:30N 51°55' E 004°29'0 0.0
2017-Dec-12 17:00N 51°55' E 004°29'0 0.0
2017-Dec-12 16:30N 51°55' E 004°29'0 0.0
2017-Dec-12 16:00N 51°55' E 004°29'0 0.0
2017-Dec-12 15:30N 51°55' E 004°29'0 0.0
2017-Dec-12 15:00N 51°55' E 004°29'0 0.0
2017-Dec-12 14:30N 51°55' E 004°29'0 0.0
2017-Dec-12 14:00N 51°55' E 004°29'0 0.0
2017-Dec-12 13:30N 51°55' E 004°29'0 0.0
2017-Dec-12 13:00N 51°55' E 004°29'0 0.0
2017-Dec-12 12:30N 51°55' E 004°29'0 0.0
2017-Dec-12 12:00N 51°55' E 004°29'0 0.0
2017-Dec-12 11:30N 51°55' E 004°29'0 0.0
2017-Dec-12 11:00N 51°55' E 004°29'0 0.0
2017-Dec-12 10:30N 51°55' E 004°29'0 0.0
2017-Dec-12 10:00N 51°55' E 004°29'0 0.0
2017-Dec-12 09:27N 51°55' E 004°29'0 0.0
2017-Dec-12 09:00N 51°55' E 004°29'0 0.0
2017-Dec-12 08:30N 51°55' E 004°29'0 0.0
2017-Dec-12 08:00N 51°55' E 004°29'0 0.0
2017-Dec-12 07:30N 51°55' E 004°29'0 0.0
2017-Dec-12 07:00N 51°55' E 004°29'0 0.0
2017-Dec-12 06:30N 51°55' E 004°29'0 0.0
2017-Dec-12 06:00N 51°55' E 004°29'0 0.0
2017-Dec-12 05:27N 51°55' E 004°29'0 0.0
2017-Dec-12 05:00N 51°55' E 004°29'0 0.0
2017-Dec-12 04:30N 51°55' E 004°29'0 0.0
2017-Dec-12 04:00N 51°55' E 004°29'0 0.0
2017-Dec-12 03:30N 51°55' E 004°29'0 0.0
2017-Dec-12 03:00N 51°55' E 004°29'0 0.0
2017-Dec-12 02:30N 51°55' E 004°29'0 0.0
2017-Dec-12 02:00N 51°55' E 004°29'0 0.0
2017-Dec-12 01:30N 51°55' E 004°29'0 0.0
2017-Dec-12 01:00N 51°55' E 004°29'0 0.0
2017-Dec-12 00:27N 51°55' E 004°29'0 0.0
2017-Dec-12 00:00N 51°55' E 004°29'0 0.0
2017-Dec-11 23:30N 51°55' E 004°29'0 0.1
2017-Dec-11 23:00N 51°55' E 004°29'0 0.0
2017-Dec-11 22:30N 51°55' E 004°29'0 0.0
2017-Dec-11 21:57N 51°55' E 004°29'0 0.0
2017-Dec-11 21:30N 51°55' E 004°29'0 0.0
2017-Dec-11 21:00N 51°55' E 004°29'0 0.0
2017-Dec-11 20:30N 51°55' E 004°29'0 0.0
2017-Dec-11 20:00N 51°55' E 004°29'0 0.0
2017-Dec-11 19:30N 51°55' E 004°29'0 0.0
2017-Dec-11 19:00N 51°55' E 004°29'0 0.0
2017-Dec-11 18:27N 51°55' E 004°29'0 0.0
2017-Dec-11 18:00N 51°55' E 004°29'0 0.0
2017-Dec-11 17:30N 51°55' E 004°29'0 0.0
2017-Dec-11 17:00N 51°55' E 004°29'0 0.0
2017-Dec-11 16:27N 51°55' E 004°29'0 0.0
2017-Dec-11 16:00N 51°55' E 004°29'0 0.0
2017-Dec-11 15:30N 51°55' E 004°29'0 0.0
2017-Dec-11 15:00N 51°55' E 004°29'0 0.0
2017-Dec-11 14:30N 51°55' E 004°29'0 0.0
2017-Dec-11 14:00N 51°55' E 004°29'0 0.0
2017-Dec-11 13:27N 51°55' E 004°29'0 0.0
2017-Dec-11 13:00N 51°55' E 004°29'0 0.0
2017-Dec-11 12:30N 51°55' E 004°29'0 0.0
2017-Dec-11 12:00N 51°55' E 004°29'0 0.0
2017-Dec-11 11:30N 51°55' E 004°29'0 0.0
2017-Dec-11 11:00N 51°55' E 004°29'0 0.0
2017-Dec-11 10:30N 51°55' E 004°29'0 0.0
2017-Dec-11 09:57N 51°55' E 004°29'0 0.0
2017-Dec-11 09:30N 51°55' E 004°29'0 0.0
2017-Dec-11 08:57N 51°55' E 004°29'0 0.0
2017-Dec-11 08:24N 51°55' E 004°29'0 0.0
2017-Dec-11 07:57N 51°55' E 004°29'0 0.0
2017-Dec-11 07:30N 51°55' E 004°29'0 0.0
2017-Dec-11 07:00N 51°55' E 004°29'0 0.0
2017-Dec-11 06:27N 51°55' E 004°29'0 0.0
2017-Dec-11 05:54N 51°55' E 004°29'0 0.0
2017-Dec-11 05:27N 51°55' E 004°29'0 0.0
2017-Dec-11 05:00N 51°55' E 004°29'0 0.0
2017-Dec-11 04:30N 51°55' E 004°29'0 0.0
2017-Dec-11 03:57N 51°55' E 004°29'0 0.0
2017-Dec-11 03:24N 51°55' E 004°29'0 0.0
2017-Dec-11 03:00N 51°55' E 004°29'0 0.0
2017-Dec-11 02:30N 51°55' E 004°29'0 0.0
2017-Dec-11 02:00N 51°55' E 004°29'0 0.0
2017-Dec-11 01:30N 51°55' E 004°29'0 0.0
2017-Dec-11 01:00N 51°55' E 004°29'0 0.0
2017-Dec-11 00:24N 51°55' E 004°29'0 0.1
2017-Dec-11 00:00N 51°55' E 004°29'0 0.1
2017-Dec-10 23:30N 51°55' E 004°29'0 0.1
2017-Dec-10 23:00N 51°55' E 004°29'0 0.0
2017-Dec-10 22:30N 51°55' E 004°29'0 0.0
2017-Dec-10 21:57N 51°55' E 004°29'0 0.0
2017-Dec-10 21:30N 51°55' E 004°29'0 0.0
2017-Dec-10 21:00N 51°55' E 004°29'0 0.0
2017-Dec-10 20:30N 51°55' E 004°29'0 0.0
2017-Dec-10 19:57N 51°55' E 004°29'0 0.0
2017-Dec-10 19:30N 51°55' E 004°29'0 0.0
2017-Dec-10 19:00N 51°55' E 004°29'0 0.1
2017-Dec-10 18:30N 51°55' E 004°29'0 0.1
2017-Dec-10 18:00N 51°55' E 004°29'0 0.0
2017-Dec-10 17:24N 51°55' E 004°29'0 0.0
2017-Dec-10 17:00N 51°55' E 004°29'0 0.0
2017-Dec-10 16:30N 51°55' E 004°29'0 0.0
2017-Dec-10 15:54N 51°55' E 004°29'0 0.0
2017-Dec-10 15:30N 51°55' E 004°29'0 0.0
2017-Dec-10 15:00N 51°55' E 004°29'0 0.0
2017-Dec-10 14:27N 51°55' E 004°29'0 0.0
2017-Dec-10 14:00N 51°55' E 004°29'0 0.0
2017-Dec-10 13:27N 51°55' E 004°29'0 0.0
2017-Dec-10 13:00N 51°55' E 004°29'0 0.0
2017-Dec-10 12:27N 51°55' E 004°29'0 0.0
2017-Dec-10 12:00N 51°55' E 004°29'0 0.0
2017-Dec-10 11:30N 51°55' E 004°29'0 0.0
2017-Dec-10 11:00N 51°55' E 004°29'0 0.0
2017-Dec-10 10:30N 51°55' E 004°29'0 0.0
2017-Dec-10 10:00N 51°55' E 004°29'0 0.0
2017-Dec-10 09:30N 51°55' E 004°29'0 0.0
2017-Dec-10 09:00N 51°55' E 004°29'0 0.0
2017-Dec-10 08:30N 51°55' E 004°29'0 0.0
2017-Dec-10 08:00N 51°55' E 004°29'0 0.0
2017-Dec-10 07:27N 51°55' E 004°29'0 0.0
2017-Dec-10 07:00N 51°55' E 004°29'0 0.0
2017-Dec-10 06:30N 51°55' E 004°29'0 0.0
2017-Dec-10 05:57N 51°55' E 004°29'0 0.0
2017-Dec-10 05:30N 51°55' E 004°29'0 0.0
2017-Dec-10 05:00N 51°55' E 004°29'0 0.0
2017-Dec-10 04:30N 51°55' E 004°29'0 0.0
2017-Dec-10 04:00N 51°55' E 004°29'0 0.0
2017-Dec-10 03:30N 51°55' E 004°29'0 0.0
2017-Dec-10 03:00N 51°55' E 004°29'0 0.0
2017-Dec-10 02:30N 51°55' E 004°29'0 0.0
2017-Dec-10 02:00N 51°55' E 004°29'0 0.0
2017-Dec-10 01:30N 51°55' E 004°29'0 0.0
2017-Dec-10 01:00N 51°55' E 004°29'0 0.0
2017-Dec-10 00:27N 51°55' E 004°29'0 0.0
2017-Dec-10 00:00N 51°55' E 004°29'0 0.1
2017-Dec-09 23:30N 51°55' E 004°29'0 0.1
2017-Dec-09 23:00N 51°55' E 004°29'0 0.0
2017-Dec-09 22:30N 51°55' E 004°29'0 0.0
2017-Dec-09 22:00N 51°55' E 004°29'0 0.0
2017-Dec-09 21:30N 51°55' E 004°29'0 0.0
2017-Dec-09 21:00N 51°55' E 004°29'0 0.0
2017-Dec-09 20:30N 51°55' E 004°29'0 0.0
2017-Dec-09 20:00N 51°55' E 004°29'0 0.0
2017-Dec-09 19:30N 51°55' E 004°29'0 0.0
2017-Dec-09 18:57N 51°55' E 004°29'0 0.1
2017-Dec-09 18:30N 51°55' E 004°29'0 0.1
2017-Dec-09 18:00N 51°55' E 004°29'0 0.0
2017-Dec-09 17:30N 51°55' E 004°29'0 0.0
2017-Dec-09 17:00N 51°55' E 004°29'0 0.0
2017-Dec-09 16:30N 51°55' E 004°29'0 0.0
2017-Dec-09 16:00N 51°55' E 004°29'0 0.0
2017-Dec-09 15:30N 51°55' E 004°29'0 0.0
2017-Dec-09 15:00N 51°55' E 004°29'0 0.0
2017-Dec-09 14:30N 51°55' E 004°29'0 0.0
2017-Dec-09 14:00N 51°55' E 004°29'0 0.0
2017-Dec-09 13:30N 51°55' E 004°29'0 0.0
2017-Dec-09 13:00N 51°55' E 004°29'0 0.0
2017-Dec-09 12:30N 51°55' E 004°29'0 0.1
2017-Dec-09 11:57N 51°55' E 004°29'0 0.3
2017-Dec-09 11:30N 51°55' E 004°29'0 0.4
2017-Dec-09 10:57N 51°55' E 004°29'0 0.0
2017-Dec-09 10:30N 51°55' E 004°29'0 0.0
2017-Dec-09 10:00N 51°55' E 004°29'0 0.0
2017-Dec-09 09:30N 51°55' E 004°29'0 0.0
2017-Dec-09 09:00N 51°55' E 004°29'0 0.0
2017-Dec-09 08:30N 51°55' E 004°29'0 0.0
2017-Dec-09 07:54N 51°55' E 004°29'0 0.0
2017-Dec-09 07:30N 51°55' E 004°29'0 0.0
2017-Dec-09 06:57N 51°55' E 004°29'0 0.0
2017-Dec-09 06:27N 51°55' E 004°29'0 0.0
2017-Dec-09 06:00N 51°55' E 004°29'0 0.0
2017-Dec-09 05:30N 51°55' E 004°29'0 0.1
2017-Dec-09 05:00N 51°55' E 004°29'0 0.1
2017-Dec-09 04:27N 51°55' E 004°29'0 0.0
2017-Dec-09 03:57N 51°55' E 004°29'0 0.0
2017-Dec-09 03:30N 51°55' E 004°29'0 0.0
2017-Dec-09 03:00N 51°55' E 004°29'0 0.0
2017-Dec-09 02:27N 51°55' E 004°29'0 0.0
2017-Dec-09 02:00N 51°55' E 004°29'0 0.1
2017-Dec-09 01:30N 51°55' E 004°29'0 0.0
2017-Dec-09 00:57N 51°55' E 004°29'0 0.0
2017-Dec-09 00:30N 51°55' E 004°29'0 0.0
2017-Dec-09 00:00N 51°55' E 004°29'0 0.0
2017-Dec-08 23:30N 51°55' E 004°29'0 0.0
2017-Dec-08 23:00N 51°55' E 004°29'0 0.0
2017-Dec-08 22:30N 51°55' E 004°29'0 0.0
2017-Dec-08 22:00N 51°55' E 004°29'0 0.0
2017-Dec-08 21:27N 51°55' E 004°29'0 0.0
2017-Dec-08 21:00N 51°55' E 004°29'0 0.0
2017-Dec-08 20:30N 51°55' E 004°29'0 0.0
2017-Dec-08 20:00N 51°55' E 004°29'0 0.0
2017-Dec-08 19:30N 51°55' E 004°29'0 0.0
2017-Dec-08 19:00N 51°55' E 004°29'0 0.1
2017-Dec-08 18:30N 51°55' E 004°29'0 0.0
2017-Dec-08 17:57N 51°55' E 004°29'0 0.0
2017-Dec-08 17:30N 51°55' E 004°29'0 0.0
2017-Dec-08 17:00N 51°55' E 004°29'0 0.0
2017-Dec-08 16:30N 51°55' E 004°29'0 0.0
2017-Dec-08 15:57N 51°55' E 004°29'0 0.0
2017-Dec-08 15:27N 51°55' E 004°29'0 0.0
2017-Dec-08 15:00N 51°55' E 004°29'0 0.0
2017-Dec-08 14:25N 51°55' E 004°29'0 0.0
2017-Dec-08 13:00N 51°55' E 004°29'0 0.0
2017-Dec-08 12:30N 51°55' E 004°29'0 0.1
2017-Dec-08 12:00N 51°55' E 004°29'0 0.1
2017-Dec-08 11:30N 51°55' E 004°29'0 0.0
2017-Dec-08 11:00N 51°55' E 004°29'0 0.0
2017-Dec-08 10:30N 51°55' E 004°29'0 0.0
2017-Dec-08 10:00N 51°55' E 004°29'0 0.0
2017-Dec-08 09:30N 51°55' E 004°29'0 0.0
2017-Dec-08 08:57N 51°55' E 004°29'0 0.0
2017-Dec-08 08:21N 51°55' E 004°29'0 0.0
2017-Dec-08 08:00N 51°55' E 004°29'0 0.0
2017-Dec-08 07:30N 51°55' E 004°29'0 0.0
2017-Dec-08 07:00N 51°55' E 004°29'0 0.0
2017-Dec-08 06:30N 51°55' E 004°29'0 0.0
2017-Dec-08 06:00N 51°55' E 004°29'0 0.0
2017-Dec-08 05:30N 51°55' E 004°29'0 0.0
2017-Dec-08 05:00N 51°55' E 004°29'0 0.0
2017-Dec-08 04:30N 51°55' E 004°29'0 0.0
2017-Dec-08 04:00N 51°55' E 004°29'0 0.0
2017-Dec-08 03:27N 51°55' E 004°29'0 0.0
2017-Dec-08 03:00N 51°55' E 004°29'0 0.0
2017-Dec-08 02:30N 51°55' E 004°29'0 0.0
2017-Dec-08 02:00N 51°55' E 004°29'0 0.0
2017-Dec-08 01:30N 51°55' E 004°29'0 0.0
2017-Dec-08 01:00N 51°55' E 004°29'0 0.0
2017-Dec-08 00:30N 51°55' E 004°29'0 0.0
2017-Dec-07 23:57N 51°55' E 004°29'0 0.0
2017-Dec-07 23:30N 51°55' E 004°29'0 0.0
2017-Dec-07 23:00N 51°55' E 004°29'0 0.0
2017-Dec-07 22:30N 51°55' E 004°29'0 0.0
2017-Dec-07 22:00N 51°55' E 004°29'0 0.0
2017-Dec-07 21:30N 51°55' E 004°29'0 0.0
2017-Dec-07 21:00N 51°55' E 004°29'0 0.0
2017-Dec-07 20:30N 51°55' E 004°29'0 0.0
2017-Dec-07 20:00N 51°55' E 004°29'0 0.0
2017-Dec-07 19:30N 51°55' E 004°29'0 0.0
2017-Dec-07 19:00N 51°55' E 004°29'0 0.0
2017-Dec-07 18:27N 51°55' E 004°29'0 0.1
2017-Dec-07 18:00N 51°55' E 004°29'0 0.0
2017-Dec-07 17:30N 51°55' E 004°29'0 0.0
2017-Dec-07 17:00N 51°55' E 004°29'0 0.0
2017-Dec-07 16:30N 51°55' E 004°29'0 0.0
2017-Dec-07 16:00N 51°55' E 004°29'0 0.0
2017-Dec-07 15:27N 51°55' E 004°29'0 0.0
2017-Dec-07 14:58N 51°55' E 004°29'0 0.0
2017-Dec-07 14:28N 51°55' E 004°29'0 0.0
2017-Dec-07 13:58N 51°55' E 004°29'0 0.0
2017-Dec-07 11:46N 51°55' E 004°29'0 0.0
2017-Dec-07 11:19N 51°55' E 004°29'0 0.0
2017-Dec-07 10:58N 51°55' E 004°29'0 0.0
2017-Dec-07 10:28N 51°55' E 004°29'0 0.0
2017-Dec-07 09:56N 51°55' E 004°29'0 0.0
2017-Dec-07 09:14N 51°55' E 004°29'0 0.0
2017-Dec-07 08:59N 51°55' E 004°29'0 0.0
2017-Dec-07 08:29N 51°55' E 004°29'0 0.0
2017-Dec-07 07:59N 51°55' E 004°29'0 0.0
2017-Dec-07 07:29N 51°55' E 004°29'0 0.0
2017-Dec-07 06:59N 51°55' E 004°29'0 0.0
2017-Dec-07 06:29N 51°55' E 004°29'0 0.0
2017-Dec-07 05:59N 51°55' E 004°29'0 0.0
2017-Dec-07 05:29N 51°55' E 004°29'0 0.0
2017-Dec-07 04:59N 51°55' E 004°29'0 0.0
2017-Dec-07 04:29N 51°55' E 004°29'0 0.0
2017-Dec-07 03:59N 51°55' E 004°29'0 0.0
2017-Dec-07 03:23N 51°55' E 004°29'0 0.0
2017-Dec-07 02:59N 51°55' E 004°29'0 0.0
2017-Dec-07 02:29N 51°55' E 004°29'0 0.0
2017-Dec-07 01:59N 51°55' E 004°29'0 0.0
2017-Dec-07 01:29N 51°55' E 004°29'0 0.0
2017-Dec-07 00:59N 51°55' E 004°29'0 0.0
2017-Dec-07 00:29N 51°55' E 004°29'0 0.1
2017-Dec-06 23:59N 51°55' E 004°29'0 0.1
2017-Dec-06 23:29N 51°55' E 004°29'0 0.0
2017-Dec-06 22:59N 51°55' E 004°29'0 0.0
2017-Dec-06 22:29N 51°55' E 004°29'0 0.0
2017-Dec-06 21:59N 51°55' E 004°29'0 0.0
2017-Dec-06 21:29N 51°55' E 004°29'0 0.0
2017-Dec-06 20:59N 51°55' E 004°29'  
Track history (hours):
 
Tides and Currents Weather Stations Pressure Air Temp Water Temp Dewpoint Dewpoint Depression Visibility Wind Speed Wind Dir Waves Ship Positions

Oosterschelde (Netherlands)

Ship's website: http://www.oosterschelde.nl/indexuk.htm

Last reported at 2017-Dec-16 01:31 UTC. Time now 2017-Dec-16 01:52 UTC.
Position N 50°36' E 000°01'.

Length 49 m; draft 2.9 m.

Type: Sailing vessel. MMSI: 246010985.

Date/timePositionNaut miles runAvg speedWind from/ knotsBaromVisibWave heightAir tempDewpointWater temp
2017-Dec-16 01:31N 50°36' E 000°01'3 6.3
2017-Dec-16 01:00N 50°37' E 000°06'3 5.6
2017-Dec-16 00:30N 50°38' E 000°10'3 5.0
2017-Dec-16 00:00N 50°39' E 000°14'2 3.8
2017-Dec-15 23:30N 50°40' E 000°16'2 3.9
2017-Dec-15 23:00N 50°41' E 000°19'2 3.9
2017-Dec-15 22:30N 50°42' E 000°22'2 3.9
2017-Dec-15 22:00N 50°43' E 000°25'2 4.8
2017-Dec-15 21:30N 50°44' E 000°28'2 4.2
2017-Dec-15 21:00N 50°45' E 000°31'2 3.5
2017-Dec-15 20:31N 50°46' E 000°33'2 3.5
2017-Dec-15 20:00N 50°46' E 000°36'2 3.2
2017-Dec-15 19:30N 50°47' E 000°38'2 4.2
2017-Dec-15 19:00N 50°48' E 000°41'28 6.6
2017-Dec-15 14:45N 51°00' E 001°21'2 7.5
2017-Dec-15 14:30N 51°01' E 001°24'4 7.4
2017-Dec-15 14:00N 51°02' E 001°29'3 6.5
2017-Dec-15 13:30N 51°03' E 001°34'3 5.8
2017-Dec-15 13:00N 51°04' E 001°38'3 5.3
2017-Dec-15 12:28N 51°04' E 001°43'9 4.0
2017-Dec-15 10:13N 51°06' E 001°57'1 3.8
2017-Dec-15 09:54N 51°06' E 001°59'2 3.7
2017-Dec-15 09:29N 51°06' E 002°01'2 4.1
2017-Dec-15 09:00N 51°07' E 002°04'2 4.1
2017-Dec-15 08:30N 51°07' E 002°07'2 4.1
2017-Dec-15 07:59N 51°08' E 002°11'2 4.6
2017-Dec-15 07:28N 51°09' E 002°14'3 5.6
2017-Dec-15 06:59N 51°10' E 002°18'3 6.3
2017-Dec-15 06:30N 51°11' E 002°23'3 5.8
2017-Dec-15 06:00N 51°11' E 002°27'3 6.7
2017-Dec-15 05:30N 51°13' E 002°32'4 6.9
2017-Dec-15 05:00N 51°15' E 002°36'3 7.1
2017-Dec-15 04:30N 51°17' E 002°41'3 6.5
2017-Dec-15 03:59N 51°18' E 002°46'8 5.0
2017-Dec-15 02:27N 51°21' E 002°58'7 4.7
2017-Dec-15 01:00N 51°22' E 003°08'3 5.6
2017-Dec-15 00:30N 51°23' E 003°13'25 4.2
2017-Dec-14 18:31N 51°21' E 003°53'3 6.0
2017-Dec-14 18:00N 51°23' E 003°57'3 6.3
2017-Dec-14 17:30N 51°26' E 003°59'2 1.9
2017-Dec-14 16:42N 51°27' E 004°01'1 3.5
2017-Dec-14 16:29N 51°28' E 004°00'1 2.5
2017-Dec-14 16:00N 51°29' E 004°00'26 1.0
2017-Dec-13 13:46N 51°43' E 004°36'4 6.4
2017-Dec-13 13:10N 51°46' E 004°38'1 8.2
2017-Dec-13 13:00N 51°48' E 004°37'4 7.2
2017-Dec-13 12:30N 51°50' E 004°33'4 7.9
2017-Dec-13 12:00N 51°50' E 004°26'4 7.9
2017-Dec-13 11:30N 51°51' E 004°20'3 5.2
2017-Dec-13 11:00N 51°54' E 004°21'3 5.7
2017-Dec-13 10:30N 51°54' E 004°26'2 4.4
2017-Dec-13 10:00N 51°55' E 004°29'0 0.8
2017-Dec-13 09:30N 51°55' E 004°29'0 0.0
2017-Dec-13 09:00N 51°55' E 004°29'0 0.0
2017-Dec-13 08:30N 51°55' E 004°29'0 0.0
2017-Dec-13 08:00N 51°55' E 004°29'0 0.0
2017-Dec-13 07:27N 51°55' E 004°29'0 0.0
2017-Dec-13 07:00N 51°55' E 004°29'0 0.0
2017-Dec-13 06:27N 51°55' E 004°29'0 0.0
2017-Dec-13 06:00N 51°55' E 004°29'0 0.0
2017-Dec-13 05:30N 51°55' E 004°29'0 0.0
2017-Dec-13 05:00N 51°55' E 004°29'0 0.0
2017-Dec-13 04:30N 51°55' E 004°29'0 0.0
2017-Dec-13 04:00N 51°55' E 004°29'0 0.0
2017-Dec-13 03:30N 51°55' E 004°29'0 0.0
2017-Dec-13 03:00N 51°55' E 004°29'0 0.0
2017-Dec-13 02:30N 51°55' E 004°29'0 0.0
2017-Dec-13 02:00N 51°55' E 004°29'0 0.0
2017-Dec-13 01:30N 51°55' E 004°29'0 0.0
2017-Dec-13 01:00N 51°55' E 004°29'0 0.0
2017-Dec-13 00:30N 51°55' E 004°29'0 0.0
2017-Dec-13 00:00N 51°55' E 004°29'0 0.1
2017-Dec-12 23:30N 51°55' E 004°29'0 0.1
2017-Dec-12 23:00N 51°55' E 004°29'0 0.0
2017-Dec-12 22:30N 51°55' E 004°29'0 0.0
2017-Dec-12 22:00N 51°55' E 004°29'0 0.0
2017-Dec-12 21:30N 51°55' E 004°29'0 0.0
2017-Dec-12 21:00N 51°55' E 004°29'0 0.0
2017-Dec-12 20:30N 51°55' E 004°29'0 0.0
2017-Dec-12 20:00N 51°55' E 004°29'0 0.0
2017-Dec-12 19:30N 51°55' E 004°29'0 0.0
2017-Dec-12 19:00N 51°55' E 004°29'0 0.0
2017-Dec-12 18:30N 51°55' E 004°29'0 0.0
2017-Dec-12 18:00N 51°55' E 004°29'0 0.1
2017-Dec-12 17:30N 51°55' E 004°29'0 0.0
2017-Dec-12 17:00N 51°55' E 004°29'0 0.0
2017-Dec-12 16:30N 51°55' E 004°29'0 0.0
2017-Dec-12 16:00N 51°55' E 004°29'0 0.0
2017-Dec-12 15:30N 51°55' E 004°29'0 0.0
2017-Dec-12 15:00N 51°55' E 004°29'0 0.0
2017-Dec-12 14:30N 51°55' E 004°29'0 0.0
2017-Dec-12 14:00N 51°55' E 004°29'0 0.0
2017-Dec-12 13:30N 51°55' E 004°29'0 0.0
2017-Dec-12 13:00N 51°55' E 004°29'0 0.0
2017-Dec-12 12:30N 51°55' E 004°29'0 0.0
2017-Dec-12 12:00N 51°55' E 004°29'0 0.0
2017-Dec-12 11:30N 51°55' E 004°29'0 0.0
2017-Dec-12 11:00N 51°55' E 004°29'0 0.0
2017-Dec-12 10:30N 51°55' E 004°29'0 0.0
2017-Dec-12 10:00N 51°55' E 004°29'0 0.0
2017-Dec-12 09:27N 51°55' E 004°29'0 0.0
2017-Dec-12 09:00N 51°55' E 004°29'0 0.0
2017-Dec-12 08:30N 51°55' E 004°29'0 0.0
2017-Dec-12 08:00N 51°55' E 004°29'0 0.0
2017-Dec-12 07:30N 51°55' E 004°29'0 0.0
2017-Dec-12 07:00N 51°55' E 004°29'0 0.0
2017-Dec-12 06:30N 51°55' E 004°29'0 0.0
2017-Dec-12 06:00N 51°55' E 004°29'0 0.0
2017-Dec-12 05:27N 51°55' E 004°29'0 0.0
2017-Dec-12 05:00N 51°55' E 004°29'0 0.0
2017-Dec-12 04:30N 51°55' E 004°29'0 0.0
2017-Dec-12 04:00N 51°55' E 004°29'0 0.0
2017-Dec-12 03:30N 51°55' E 004°29'0 0.0
2017-Dec-12 03:00N 51°55' E 004°29'0 0.0
2017-Dec-12 02:30N 51°55' E 004°29'0 0.0
2017-Dec-12 02:00N 51°55' E 004°29'0 0.0
2017-Dec-12 01:30N 51°55' E 004°29'0 0.0
2017-Dec-12 01:00N 51°55' E 004°29'0 0.0
2017-Dec-12 00:27N 51°55' E 004°29'0 0.0
2017-Dec-12 00:00N 51°55' E 004°29'0 0.0
2017-Dec-11 23:30N 51°55' E 004°29'0 0.1
2017-Dec-11 23:00N 51°55' E 004°29'0 0.0
2017-Dec-11 22:30N 51°55' E 004°29'0 0.0
2017-Dec-11 21:57N 51°55' E 004°29'0 0.0
2017-Dec-11 21:30N 51°55' E 004°29'0 0.0
2017-Dec-11 21:00N 51°55' E 004°29'0 0.0
2017-Dec-11 20:30N 51°55' E 004°29'0 0.0
2017-Dec-11 20:00N 51°55' E 004°29'0 0.0
2017-Dec-11 19:30N 51°55' E 004°29'0 0.0
2017-Dec-11 19:00N 51°55' E 004°29'0 0.0
2017-Dec-11 18:27N 51°55' E 004°29'0 0.0
2017-Dec-11 18:00N 51°55' E 004°29'0 0.0
2017-Dec-11 17:30N 51°55' E 004°29'0 0.0
2017-Dec-11 17:00N 51°55' E 004°29'0 0.0
2017-Dec-11 16:27N 51°55' E 004°29'0 0.0
2017-Dec-11 16:00N 51°55' E 004°29'0 0.0
2017-Dec-11 15:30N 51°55' E 004°29'0 0.0
2017-Dec-11 15:00N 51°55' E 004°29'0 0.0
2017-Dec-11 14:30N 51°55' E 004°29'0 0.0
2017-Dec-11 14:00N 51°55' E 004°29'0 0.0
2017-Dec-11 13:27N 51°55' E 004°29'0 0.0
2017-Dec-11 13:00N 51°55' E 004°29'0 0.0
2017-Dec-11 12:30N 51°55' E 004°29'0 0.0
2017-Dec-11 12:00N 51°55' E 004°29'0 0.0
2017-Dec-11 11:30N 51°55' E 004°29'0 0.0
2017-Dec-11 11:00N 51°55' E 004°29'0 0.0
2017-Dec-11 10:30N 51°55' E 004°29'0 0.0
2017-Dec-11 09:57N 51°55' E 004°29'0 0.0
2017-Dec-11 09:30N 51°55' E 004°29'0 0.0
2017-Dec-11 08:57N 51°55' E 004°29'0 0.0
2017-Dec-11 08:24N 51°55' E 004°29'0 0.0
2017-Dec-11 07:57N 51°55' E 004°29'0 0.0
2017-Dec-11 07:30N 51°55' E 004°29'0 0.0
2017-Dec-11 07:00N 51°55' E 004°29'0 0.0
2017-Dec-11 06:27N 51°55' E 004°29'0 0.0
2017-Dec-11 05:54N 51°55' E 004°29'0 0.0
2017-Dec-11 05:27N 51°55' E 004°29'0 0.0
2017-Dec-11 05:00N 51°55' E 004°29'0 0.0
2017-Dec-11 04:30N 51°55' E 004°29'0 0.0
2017-Dec-11 03:57N 51°55' E 004°29'0 0.0
2017-Dec-11 03:24N 51°55' E 004°29'0 0.0
2017-Dec-11 03:00N 51°55' E 004°29'0 0.0
2017-Dec-11 02:30N 51°55' E 004°29'0 0.0
2017-Dec-11 02:00N 51°55' E 004°29'0 0.0
2017-Dec-11 01:30N 51°55' E 004°29'0 0.0
2017-Dec-11 01:00N 51°55' E 004°29'0 0.0
2017-Dec-11 00:24N 51°55' E 004°29'0 0.1
2017-Dec-11 00:00N 51°55' E 004°29'0 0.1
2017-Dec-10 23:30N 51°55' E 004°29'0 0.1
2017-Dec-10 23:00N 51°55' E 004°29'0 0.0
2017-Dec-10 22:30N 51°55' E 004°29'0 0.0
2017-Dec-10 21:57N 51°55' E 004°29'0 0.0
2017-Dec-10 21:30N 51°55' E 004°29'0 0.0
2017-Dec-10 21:00N 51°55' E 004°29'0 0.0
2017-Dec-10 20:30N 51°55' E 004°29'0 0.0
2017-Dec-10 19:57N 51°55' E 004°29'0 0.0
2017-Dec-10 19:30N 51°55' E 004°29'0 0.0
2017-Dec-10 19:00N 51°55' E 004°29'0 0.1
2017-Dec-10 18:30N 51°55' E 004°29'0 0.1
2017-Dec-10 18:00N 51°55' E 004°29'0 0.0
2017-Dec-10 17:24N 51°55' E 004°29'0 0.0
2017-Dec-10 17:00N 51°55' E 004°29'0 0.0
2017-Dec-10 16:30N 51°55' E 004°29'0 0.0
2017-Dec-10 15:54N 51°55' E 004°29'0 0.0
2017-Dec-10 15:30N 51°55' E 004°29'0 0.0
2017-Dec-10 15:00N 51°55' E 004°29'0 0.0
2017-Dec-10 14:27N 51°55' E 004°29'0 0.0
2017-Dec-10 14:00N 51°55' E 004°29'0 0.0
2017-Dec-10 13:27N 51°55' E 004°29'0 0.0
2017-Dec-10 13:00N 51°55' E 004°29'0 0.0
2017-Dec-10 12:27N 51°55' E 004°29'0 0.0
2017-Dec-10 12:00N 51°55' E 004°29'0 0.0
2017-Dec-10 11:30N 51°55' E 004°29'0 0.0
2017-Dec-10 11:00N 51°55' E 004°29'0 0.0
2017-Dec-10 10:30N 51°55' E 004°29'0 0.0
2017-Dec-10 10:00N 51°55' E 004°29'0 0.0
2017-Dec-10 09:30N 51°55' E 004°29'0 0.0
2017-Dec-10 09:00N 51°55' E 004°29'0 0.0
2017-Dec-10 08:30N 51°55' E 004°29'0 0.0
2017-Dec-10 08:00N 51°55' E 004°29'0 0.0
2017-Dec-10 07:27N 51°55' E 004°29'0 0.0
2017-Dec-10 07:00N 51°55' E 004°29'0 0.0
2017-Dec-10 06:30N 51°55' E 004°29'0 0.0
2017-Dec-10 05:57N 51°55' E 004°29'0 0.0
2017-Dec-10 05:30N 51°55' E 004°29'0 0.0
2017-Dec-10 05:00N 51°55' E 004°29'0 0.0
2017-Dec-10 04:30N 51°55' E 004°29'0 0.0
2017-Dec-10 04:00N 51°55' E 004°29'0 0.0
2017-Dec-10 03:30N 51°55' E 004°29'0 0.0
2017-Dec-10 03:00N 51°55' E 004°29'0 0.0
2017-Dec-10 02:30N 51°55' E 004°29'0 0.0
2017-Dec-10 02:00N 51°55' E 004°29'0 0.0
2017-Dec-10 01:30N 51°55' E 004°29'0 0.0
2017-Dec-10 01:00N 51°55' E 004°29'0 0.0
2017-Dec-10 00:27N 51°55' E 004°29'0 0.0
2017-Dec-10 00:00N 51°55' E 004°29'0 0.1
2017-Dec-09 23:30N 51°55' E 004°29'0 0.1
2017-Dec-09 23:00N 51°55' E 004°29'0 0.0
2017-Dec-09 22:30N 51°55' E 004°29'0 0.0
2017-Dec-09 22:00N 51°55' E 004°29'0 0.0
2017-Dec-09 21:30N 51°55' E 004°29'0 0.0
2017-Dec-09 21:00N 51°55' E 004°29'0 0.0
2017-Dec-09 20:30N 51°55' E 004°29'0 0.0
2017-Dec-09 20:00N 51°55' E 004°29'0 0.0
2017-Dec-09 19:30N 51°55' E 004°29'0 0.0
2017-Dec-09 18:57N 51°55' E 004°29'0 0.1
2017-Dec-09 18:30N 51°55' E 004°29'0 0.1
2017-Dec-09 18:00N 51°55' E 004°29'0 0.0
2017-Dec-09 17:30N 51°55' E 004°29'0 0.0
2017-Dec-09 17:00N 51°55' E 004°29'0 0.0
2017-Dec-09 16:30N 51°55' E 004°29'0 0.0
2017-Dec-09 16:00N 51°55' E 004°29'0 0.0
2017-Dec-09 15:30N 51°55' E 004°29'0 0.0
2017-Dec-09 15:00N 51°55' E 004°29'0 0.0
2017-Dec-09 14:30N 51°55' E 004°29'0 0.0
2017-Dec-09 14:00N 51°55' E 004°29'0 0.0
2017-Dec-09 13:30N 51°55' E 004°29'0 0.0
2017-Dec-09 13:00N 51°55' E 004°29'0 0.0
2017-Dec-09 12:30N 51°55' E 004°29'0 0.1
2017-Dec-09 11:57N 51°55' E 004°29'0 0.3
2017-Dec-09 11:30N 51°55' E 004°29'0 0.4
2017-Dec-09 10:57N 51°55' E 004°29'0 0.0
2017-Dec-09 10:30N 51°55' E 004°29'0 0.0
2017-Dec-09 10:00N 51°55' E 004°29'0 0.0
2017-Dec-09 09:30N 51°55' E 004°29'0 0.0
2017-Dec-09 09:00N 51°55' E 004°29'0 0.0
2017-Dec-09 08:30N 51°55' E 004°29'0 0.0
2017-Dec-09 07:54N 51°55' E 004°29'0 0.0
2017-Dec-09 07:30N 51°55' E 004°29'0 0.0
2017-Dec-09 06:57N 51°55' E 004°29'0 0.0
2017-Dec-09 06:27N 51°55' E 004°29'0 0.0
2017-Dec-09 06:00N 51°55' E 004°29'0 0.0
2017-Dec-09 05:30N 51°55' E 004°29'0 0.1
2017-Dec-09 05:00N 51°55' E 004°29'0 0.1
2017-Dec-09 04:27N 51°55' E 004°29'0 0.0
2017-Dec-09 03:57N 51°55' E 004°29'0 0.0
2017-Dec-09 03:30N 51°55' E 004°29'0 0.0
2017-Dec-09 03:00N 51°55' E 004°29'0 0.0
2017-Dec-09 02:27N 51°55' E 004°29'0 0.0
2017-Dec-09 02:00N 51°55' E 004°29'0 0.1
2017-Dec-09 01:30N 51°55' E 004°29'0 0.0
2017-Dec-09 00:57N 51°55' E 004°29'0 0.0
2017-Dec-09 00:30N 51°55' E 004°29'0 0.0
2017-Dec-09 00:00N 51°55' E 004°29'0 0.0
2017-Dec-08 23:30N 51°55' E 004°29'0 0.0
2017-Dec-08 23:00N 51°55' E 004°29'0 0.0
2017-Dec-08 22:30N 51°55' E 004°29'0 0.0
2017-Dec-08 22:00N 51°55' E 004°29'0 0.0
2017-Dec-08 21:27N 51°55' E 004°29'0 0.0
2017-Dec-08 21:00N 51°55' E 004°29'0 0.0
2017-Dec-08 20:30N 51°55' E 004°29'0 0.0
2017-Dec-08 20:00N 51°55' E 004°29'0 0.0
2017-Dec-08 19:30N 51°55' E 004°29'0 0.0
2017-Dec-08 19:00N 51°55' E 004°29'0 0.1
2017-Dec-08 18:30N 51°55' E 004°29'0 0.0
2017-Dec-08 17:57N 51°55' E 004°29'0 0.0
2017-Dec-08 17:30N 51°55' E 004°29'0 0.0
2017-Dec-08 17:00N 51°55' E 004°29'0 0.0
2017-Dec-08 16:30N 51°55' E 004°29'0 0.0
2017-Dec-08 15:57N 51°55' E 004°29'0 0.0
2017-Dec-08 15:27N 51°55' E 004°29'0 0.0
2017-Dec-08 15:00N 51°55' E 004°29'0 0.0
2017-Dec-08 14:25N 51°55' E 004°29'0 0.0
2017-Dec-08 13:00N 51°55' E 004°29'0 0.0
2017-Dec-08 12:30N 51°55' E 004°29'0 0.1
2017-Dec-08 12:00N 51°55' E 004°29'0 0.1
2017-Dec-08 11:30N 51°55' E 004°29'0 0.0
2017-Dec-08 11:00N 51°55' E 004°29'0 0.0
2017-Dec-08 10:30N 51°55' E 004°29'0 0.0
2017-Dec-08 10:00N 51°55' E 004°29'0 0.0
2017-Dec-08 09:30N 51°55' E 004°29'0 0.0
2017-Dec-08 08:57N 51°55' E 004°29'0 0.0
2017-Dec-08 08:21N 51°55' E 004°29'0 0.0
2017-Dec-08 08:00N 51°55' E 004°29'0 0.0
2017-Dec-08 07:30N 51°55' E 004°29'0 0.0
2017-Dec-08 07:00N 51°55' E 004°29'0 0.0
2017-Dec-08 06:30N 51°55' E 004°29'0 0.0
2017-Dec-08 06:00N 51°55' E 004°29'0 0.0
2017-Dec-08 05:30N 51°55' E 004°29'0 0.0
2017-Dec-08 05:00N 51°55' E 004°29'0 0.0
2017-Dec-08 04:30N 51°55' E 004°29'0 0.0
2017-Dec-08 04:00N 51°55' E 004°29'0 0.0
2017-Dec-08 03:27N 51°55' E 004°29'0 0.0
2017-Dec-08 03:00N 51°55' E 004°29'0 0.0
2017-Dec-08 02:30N 51°55' E 004°29'0 0.0
2017-Dec-08 02:00N 51°55' E 004°29'0 0.0
2017-Dec-08 01:30N 51°55' E 004°29'0 0.0
2017-Dec-08 01:00N 51°55' E 004°29'0 0.0
2017-Dec-08 00:30N 51°55' E 004°29'0 0.0
2017-Dec-07 23:57N 51°55' E 004°29'0 0.0
2017-Dec-07 23:30N 51°55' E 004°29'0 0.0
2017-Dec-07 23:00N 51°55' E 004°29'0 0.0
2017-Dec-07 22:30N 51°55' E 004°29'0 0.0
2017-Dec-07 22:00N 51°55' E 004°29'0 0.0
2017-Dec-07 21:30N 51°55' E 004°29'0 0.0
2017-Dec-07 21:00N 51°55' E 004°29'0 0.0
2017-Dec-07 20:30N 51°55' E 004°29'0 0.0
2017-Dec-07 20:00N 51°55' E 004°29'0 0.0
2017-Dec-07 19:30N 51°55' E 004°29'0 0.0
2017-Dec-07 19:00N 51°55' E 004°29'0 0.0
2017-Dec-07 18:27N 51°55' E 004°29'0 0.1
2017-Dec-07 18:00N 51°55' E 004°29'0 0.0
2017-Dec-07 17:30N 51°55' E 004°29'0 0.0
2017-Dec-07 17:00N 51°55' E 004°29'0 0.0
2017-Dec-07 16:30N 51°55' E 004°29'0 0.0
2017-Dec-07 16:00N 51°55' E 004°29'0 0.0
2017-Dec-07 15:27N 51°55' E 004°29'0 0.0
2017-Dec-07 14:58N 51°55' E 004°29'0 0.0
2017-Dec-07 14:28N 51°55' E 004°29'0 0.0
2017-Dec-07 13:58N 51°55' E 004°29'0 0.0
2017-Dec-07 11:46N 51°55' E 004°29'0 0.0
2017-Dec-07 11:19N 51°55' E 004°29'0 0.0
2017-Dec-07 10:58N 51°55' E 004°29'0 0.0
2017-Dec-07 10:28N 51°55' E 004°29'0 0.0
2017-Dec-07 09:56N 51°55' E 004°29'0 0.0
2017-Dec-07 09:14N 51°55' E 004°29'0 0.0
2017-Dec-07 08:59N 51°55' E 004°29'0 0.0
2017-Dec-07 08:29N 51°55' E 004°29'0 0.0
2017-Dec-07 07:59N 51°55' E 004°29'0 0.0
2017-Dec-07 07:29N 51°55' E 004°29'0 0.0
2017-Dec-07 06:59N 51°55' E 004°29'0 0.0
2017-Dec-07 06:29N 51°55' E 004°29'0 0.0
2017-Dec-07 05:59N 51°55' E 004°29'0 0.0
2017-Dec-07 05:29N 51°55' E 004°29'0 0.0
2017-Dec-07 04:59N 51°55' E 004°29'0 0.0
2017-Dec-07 04:29N 51°55' E 004°29'0 0.0
2017-Dec-07 03:59N 51°55' E 004°29'0 0.0
2017-Dec-07 03:23N 51°55' E 004°29'0 0.0
2017-Dec-07 02:59N 51°55' E 004°29'0 0.0
2017-Dec-07 02:29N 51°55' E 004°29'0 0.0
2017-Dec-07 01:59N 51°55' E 004°29'0 0.0
2017-Dec-07 01:29N 51°55' E 004°29'0 0.0
2017-Dec-07 00:59N 51°55' E 004°29'0 0.0
2017-Dec-07 00:29N 51°55' E 004°29'0 0.1
2017-Dec-06 23:59N 51°55' E 004°29'0 0.1
2017-Dec-06 23:29N 51°55' E 004°29'0 0.0
2017-Dec-06 22:59N 51°55' E 004°29'0 0.0
2017-Dec-06 22:29N 51°55' E 004°29'0 0.0
2017-Dec-06 21:59N 51°55' E 004°29'0 0.0
2017-Dec-06 21:29N 51°55' E 004°29'0 0.0
2017-Dec-06 20:59N 51°55' E 004°29'  

Dump ship's entire track history